Time;durP1;ratioP1;P1;durP2;ratioP2;P2;SDS_P1;SDS_P2;PMS_P1;PMS_P2;Temp;Humidity;BMP_temperature;BMP_pressure;BME280_temperature;BME280_humidity;BME280_pressure;Samples;Min_cycle;Max_cycle;Signal;HPM_P1;HPM_P2
2022/10/23 00:00:34;;;;;;;6.20;4.38;;;;;;;;;;5041500;28;20461;-64
2022/10/23 00:03:00;;;;;;;8.43;6.10;;;;;;;;;;5048033;28;20090;-64
2022/10/23 00:05:27;;;;;;;6.85;5.53;;;;;;;;;;5044107;28;20041;-63
2022/10/23 00:07:54;;;;;;;7.68;5.47;;;;;;;;;;5038806;28;20033;-64
2022/10/23 00:10:20;;;;;;;6.97;5.22;;;;;;;;;;5046309;28;20045;-64
2022/10/23 00:12:47;;;;;;;8.52;6.70;;;;;;;;;;5048740;28;20498;-64
2022/10/23 00:15:13;;;;;;;13.57;7.15;;;;;;;;;;5046325;28;20045;-64
2022/10/23 00:17:39;;;;;;;8.55;7.18;;;;;;;;;;5051596;28;20071;-64
2022/10/23 00:20:06;;;;;;;11.55;7.10;;;;;;;;;;5041038;28;20033;-63
2022/10/23 00:22:32;;;;;;;13.07;8.90;;;;;;;;;;5035504;28;20037;-64
2022/10/23 00:24:58;;;;;;;13.85;8.25;;;;;;;;;;5049451;28;20098;-64
2022/10/23 00:27:24;;;;;;;14.00;9.13;;;;;;;;;;5050339;28;20044;-64
2022/10/23 00:29:50;;;;;;;13.45;8.50;;;;;;;;;;5048618;28;20033;-64
2022/10/23 00:32:16;;;;;;;11.90;8.63;;;;;;;;;;5051266;28;20041;-63
2022/10/23 00:34:42;;;;;;;13.25;8.63;;;;;;;;;;5045419;28;20411;-64
2022/10/23 00:37:09;;;;;;;10.98;8.20;;;;;;;;;;5048248;28;20037;-63
2022/10/23 00:39:35;;;;;;;12.57;7.88;;;;;;;;;;5049926;28;20029;-64
2022/10/23 00:42:01;;;;;;;15.60;9.05;;;;;;;;;;5051670;28;20041;-64
2022/10/23 00:44:29;;;;;;;14.35;8.65;;;;;;;;;;5049302;28;20151;-64
2022/10/23 00:46:56;;;;;;;11.18;9.23;;;;;;;;;;5045900;28;20115;-64
2022/10/23 00:49:24;;;;;;;13.13;9.57;;;;;;;;;;5045529;28;20487;-63
2022/10/23 00:51:52;;;;;;;11.32;8.85;;;;;;;;;;5051488;28;20043;-64
2022/10/23 00:54:20;;;;;;;16.45;10.45;;;;;;;;;;5050320;28;20076;-64
2022/10/23 00:56:46;;;;;;;12.88;9.05;;;;;;;;;;5042898;28;20064;-64
2022/10/23 00:59:12;;;;;;;14.93;10.07;;;;;;;;;;5052776;28;20037;-63
2022/10/23 01:01:38;;;;;;;16.27;9.88;;;;;;;;;;5051721;28;20033;-64
2022/10/23 01:04:05;;;;;;;12.70;9.55;;;;;;;;;;5051223;28;20499;-64
2022/10/23 01:06:31;;;;;;;12.35;9.43;;;;;;;;;;5039710;28;20039;-64
2022/10/23 01:09:02;;;;;;;21.30;9.90;;;;;;;;;;5042788;28;20033;-64
2022/10/23 01:11:32;;;;;;;14.35;9.77;;;;;;;;;;5054898;28;20045;-64
2022/10/23 01:14:13;;;;;;;13.63;9.45;;;;;;;;;;5054671;28;20045;-64
2022/10/23 01:16:51;;;;;;;11.13;7.88;;;;;;;;;;5045706;28;20503;-64
2022/10/23 01:19:41;;;;;;;9.40;7.70;;;;;;;;;;5052451;28;20041;-64
2022/10/23 01:22:26;;;;;;;12.13;7.80;;;;;;;;;;5051521;28;20502;-64
2022/10/23 01:25:02;;;;;;;12.30;7.50;;;;;;;;;;5053299;28;20045;-64
2022/10/23 01:27:36;;;;;;;7.50;6.30;;;;;;;;;;5053117;28;20045;-64
2022/10/23 01:30:09;;;;;;;8.48;7.15;;;;;;;;;;5050443;28;20037;-64
2022/10/23 01:32:35;;;;;;;7.97;6.57;;;;;;;;;;5054640;28;20049;-64
2022/10/23 01:35:07;;;;;;;7.07;5.30;;;;;;;;;;5047536;28;20039;-64
2022/10/23 01:37:53;;;;;;;7.80;5.90;;;;;;;;;;5054613;28;20060;-63
2022/10/23 01:40:24;;;;;;;8.30;6.07;;;;;;;;;;5045246;28;20040;-64
2022/10/23 01:42:53;;;;;;;15.55;9.95;;;;;;;;;;5051001;28;20491;-64
2022/10/23 01:45:32;;;;;;;5.70;5.10;;;;;;;;;;5053186;28;20045;-64
2022/10/23 01:47:59;;;;;;;7.47;5.72;;;;;;;;;;5054367;28;20033;-64
2022/10/23 01:50:26;;;;;;;6.65;5.53;;;;;;;;;;5044501;28;20052;-64
2022/10/23 01:52:52;;;;;;;9.82;6.13;;;;;;;;;;5048828;28;20045;-64
2022/10/23 01:55:18;;;;;;;6.72;5.85;;;;;;;;;;5050197;28;20041;-64
2022/10/23 01:57:45;;;;;;;23.30;6.82;;;;;;;;;;5047439;28;20033;-64
2022/10/23 02:00:12;;;;;;;9.43;6.88;;;;;;;;;;5044608;28;20479;-64
2022/10/23 02:02:40;;;;;;;10.93;6.75;;;;;;;;;;5048866;28;20037;-64
2022/10/23 02:05:07;;;;;;;9.52;6.45;;;;;;;;;;5045384;28;20543;-64
2022/10/23 02:07:33;;;;;;;11.85;8.32;;;;;;;;;;5037897;28;20033;-64
2022/10/23 02:09:59;;;;;;;8.93;6.43;;;;;;;;;;5050959;28;20421;-63
2022/10/23 02:12:25;;;;;;;22.15;6.65;;;;;;;;;;5053449;28;20041;-64
2022/10/23 02:14:53;;;;;;;7.57;6.07;;;;;;;;;;5052983;28;20039;-64
2022/10/23 02:17:19;;;;;;;10.43;6.80;;;;;;;;;;5039623;28;20502;-64
2022/10/23 02:19:48;;;;;;;7.32;6.10;;;;;;;;;;5053339;28;20112;-64
2022/10/23 02:22:18;;;;;;;9.98;6.53;;;;;;;;;;5052457;28;20513;-64
2022/10/23 02:24:52;;;;;;;11.97;7.17;;;;;;;;;;5045480;28;20038;-64
2022/10/23 02:27:21;;;;;;;14.15;9.93;;;;;;;;;;5050559;28;20041;-64
2022/10/23 02:29:53;;;;;;;11.55;8.10;;;;;;;;;;5051010;28;20364;-64
2022/10/23 02:32:20;;;;;;;13.27;9.27;;;;;;;;;;5049122;28;20095;-65
2022/10/23 02:34:46;;;;;;;15.38;7.70;;;;;;;;;;5049400;28;20115;-65
2022/10/23 02:37:12;;;;;;;15.77;7.68;;;;;;;;;;5052918;28;20086;-64
2022/10/23 02:39:38;;;;;;;8.77;7.47;;;;;;;;;;5051360;28;20372;-64
2022/10/23 02:42:20;;;;;;;8.55;6.72;;;;;;;;;;5047973;28;20036;-64
2022/10/23 02:44:56;;;;;;;9.15;6.25;;;;;;;;;;5046292;28;20041;-64
2022/10/23 02:47:28;;;;;;;32.45;7.93;;;;;;;;;;5051607;28;20106;-64
2022/10/23 02:50:09;;;;;;;9.40;6.93;;;;;;;;;;5049864;28;20123;-64
2022/10/23 02:52:35;;;;;;;;;;;;;;;;;;5047798;28;20039;-64
2022/10/23 02:55:01;;;;;;;9.10;7.60;;;;;;;;;;5044226;28;19921;-64
2022/10/23 02:57:31;;;;;;;12.65;8.30;;;;;;;;;;5051989;28;20041;-64
2022/10/23 03:00:00;;;;;;;9.25;6.90;;;;;;;;;;5046460;28;20037;-64
2022/10/23 03:02:30;;;;;;;8.85;7.40;;;;;;;;;;5051945;28;20402;-64
2022/10/23 03:04:56;;;;;;;10.23;7.28;;;;;;;;;;5051391;28;20040;-64
2022/10/23 03:07:25;;;;;;;15.48;9.45;;;;;;;;;;5052554;28;20315;-64
2022/10/23 03:09:51;;;;;;;14.70;10.48;;;;;;;;;;5051745;28;20033;-64
2022/10/23 03:12:17;;;;;;;15.27;10.18;;;;;;;;;;5052324;28;20495;-64
2022/10/23 03:14:43;;;;;;;15.50;10.35;;;;;;;;;;5048683;28;20071;-64
2022/10/23 03:17:09;;;;;;;20.33;11.15;;;;;;;;;;5047967;28;20041;-64
2022/10/23 03:19:35;;;;;;;18.55;11.00;;;;;;;;;;5041571;28;20520;-64
2022/10/23 03:22:01;;;;;;;17.00;10.45;;;;;;;;;;5043596;28;20033;-64
2022/10/23 03:24:27;;;;;;;17.10;10.07;;;;;;;;;;5051029;28;20127;-64
2022/10/23 03:26:53;;;;;;;15.10;10.10;;;;;;;;;;5050622;28;20040;-64
2022/10/23 03:29:19;;;;;;;18.80;11.13;;;;;;;;;;5049646;28;20450;-64
2022/10/23 03:31:45;;;;;;;16.85;11.18;;;;;;;;;;5051902;28;20048;-64
2022/10/23 03:34:12;;;;;;;18.02;11.43;;;;;;;;;;5052558;28;20037;-64
2022/10/23 03:36:38;;;;;;;18.38;10.88;;;;;;;;;;5042462;28;20040;-64
2022/10/23 03:39:04;;;;;;;14.98;9.80;;;;;;;;;;5040767;28;20037;-64
2022/10/23 03:41:31;;;;;;;17.40;10.43;;;;;;;;;;5051808;28;20043;-64
2022/10/23 03:43:57;;;;;;;16.33;10.70;;;;;;;;;;5051198;28;20029;-64
2022/10/23 03:46:23;;;;;;;18.48;11.65;;;;;;;;;;5044592;28;20037;-64
2022/10/23 03:48:49;;;;;;;18.95;11.38;;;;;;;;;;5044930;28;20125;-64
2022/10/23 03:51:15;;;;;;;18.63;12.43;;;;;;;;;;5050484;28;20120;-64
2022/10/23 03:53:41;;;;;;;18.58;11.40;;;;;;;;;;5052344;28;20041;-64
2022/10/23 03:56:07;;;;;;;18.80;12.80;;;;;;;;;;5049455;28;20041;-64
2022/10/23 03:58:33;;;;;;;17.83;12.30;;;;;;;;;;5033453;28;20450;-64
2022/10/23 04:00:59;;;;;;;17.65;11.95;;;;;;;;;;5045585;28;20121;-64
2022/10/23 04:03:25;;;;;;;20.15;12.70;;;;;;;;;;5050090;28;20069;-64
2022/10/23 04:05:51;;;;;;;23.15;12.20;;;;;;;;;;5043600;28;20036;-64
2022/10/23 04:08:17;;;;;;;19.98;13.20;;;;;;;;;;5041028;28;20037;-64
2022/10/23 04:10:43;;;;;;;22.77;13.40;;;;;;;;;;5049802;28;20052;-64
2022/10/23 04:13:09;;;;;;;24.83;12.98;;;;;;;;;;5045097;28;20041;-64
2022/10/23 04:15:35;;;;;;;23.33;13.52;;;;;;;;;;5039901;28;20052;-64
2022/10/23 04:18:01;;;;;;;21.55;13.35;;;;;;;;;;5031272;28;20403;-64
2022/10/23 04:20:27;;;;;;;22.10;12.90;;;;;;;;;;5046288;28;20048;-64
2022/10/23 04:22:53;;;;;;;22.48;13.27;;;;;;;;;;5051814;28;20037;-64
2022/10/23 04:25:19;;;;;;;21.10;13.40;;;;;;;;;;5048686;28;20490;-64
2022/10/23 04:27:45;;;;;;;21.42;13.75;;;;;;;;;;5044685;28;20037;-64
2022/10/23 04:30:11;;;;;;;21.52;13.18;;;;;;;;;;5044347;28;20051;-64
2022/10/23 04:32:37;;;;;;;19.75;13.27;;;;;;;;;;5051517;28;20518;-64
2022/10/23 04:35:04;;;;;;;19.77;13.02;;;;;;;;;;5047051;28;20443;-64
2022/10/23 04:37:30;;;;;;;18.08;12.10;;;;;;;;;;5048136;28;20040;-64
2022/10/23 04:39:55;;;;;;;19.63;12.40;;;;;;;;;;5047099;28;20452;-64
2022/10/23 04:42:22;;;;;;;20.77;12.77;;;;;;;;;;5051054;28;20037;-64
2022/10/23 04:44:48;;;;;;;19.10;13.15;;;;;;;;;;5048967;28;20483;-64
2022/10/23 04:47:14;;;;;;;20.13;12.60;;;;;;;;;;5048614;28;20048;-64
2022/10/23 04:49:39;;;;;;;19.65;12.95;;;;;;;;;;5049848;28;20146;-64
2022/10/23 04:52:06;;;;;;;20.85;13.57;;;;;;;;;;5046688;28;20051;-64
2022/10/23 04:54:38;;;;;;;21.95;13.45;;;;;;;;;;5041012;28;20041;-64
2022/10/23 04:57:04;;;;;;;29.10;15.23;;;;;;;;;;5050582;28;20043;-64
2022/10/23 04:59:30;;;;;;;18.80;12.60;;;;;;;;;;5043601;28;20030;-64
2022/10/23 05:01:56;;;;;;;23.55;13.18;;;;;;;;;;5043026;28;20037;-64
2022/10/23 05:04:22;;;;;;;20.05;12.55;;;;;;;;;;5048808;28;20044;-64
2022/10/23 05:06:48;;;;;;;24.63;13.75;;;;;;;;;;5050343;28;20044;-64
2022/10/23 05:09:14;;;;;;;20.75;12.70;;;;;;;;;;5044538;28;20042;-64
2022/10/23 05:11:40;;;;;;;17.98;12.52;;;;;;;;;;5043622;28;20040;-64
2022/10/23 05:14:06;;;;;;;24.17;13.25;;;;;;;;;;5049735;28;20394;-63
2022/10/23 05:16:35;;;;;;;22.55;13.30;;;;;;;;;;5049749;28;20072;-64
2022/10/23 05:19:01;;;;;;;17.55;12.38;;;;;;;;;;5048184;28;20037;-63
2022/10/23 05:21:29;;;;;;;24.35;12.85;;;;;;;;;;5050217;28;20136;-64
2022/10/23 05:23:56;;;;;;;21.92;13.13;;;;;;;;;;5050901;28;20076;-64
2022/10/23 05:26:22;;;;;;;23.58;13.00;;;;;;;;;;5044525;28;20041;-64
2022/10/23 05:28:48;;;;;;;19.80;12.07;;;;;;;;;;5046224;28;20542;-64
2022/10/23 05:31:14;;;;;;;22.35;13.20;;;;;;;;;;5039601;28;20498;-64
2022/10/23 05:33:40;;;;;;;21.48;12.30;;;;;;;;;;5051333;28;20037;-63
2022/10/23 05:36:07;;;;;;;20.98;12.52;;;;;;;;;;5049435;28;20037;-63
2022/10/23 05:38:34;;;;;;;21.02;12.35;;;;;;;;;;5049428;28;20387;-63
2022/10/23 05:41:00;;;;;;;23.30;13.23;;;;;;;;;;5038021;28;20579;-64
2022/10/23 05:43:29;;;;;;;22.27;12.75;;;;;;;;;;5053162;28;20065;-64
2022/10/23 05:45:56;;;;;;;22.48;12.73;;;;;;;;;;5051876;28;20112;-64
2022/10/23 05:48:22;;;;;;;19.92;12.18;;;;;;;;;;5050496;28;20045;-64
2022/10/23 05:50:48;;;;;;;21.38;12.23;;;;;;;;;;5046895;28;20037;-64
2022/10/23 05:53:14;;;;;;;20.88;12.15;;;;;;;;;;5052494;28;20037;-64
2022/10/23 05:55:40;;;;;;;21.02;12.98;;;;;;;;;;5045554;28;20045;-64
2022/10/23 05:58:06;;;;;;;23.10;12.73;;;;;;;;;;5053844;28;20417;-63
2022/10/23 06:00:32;;;;;;;23.08;13.15;;;;;;;;;;5037633;28;20043;-64
2022/10/23 06:02:59;;;;;;;22.75;12.38;;;;;;;;;;5050294;28;20044;-64
2022/10/23 06:05:25;;;;;;;21.63;13.30;;;;;;;;;;5037002;28;20037;-63
2022/10/23 06:07:51;;;;;;;20.85;12.35;;;;;;;;;;5040547;28;20518;-65
2022/10/23 06:10:17;;;;;;;23.13;12.55;;;;;;;;;;5040023;28;20079;-64
2022/10/23 06:12:43;;;;;;;20.23;12.57;;;;;;;;;;5047043;28;20131;-64
2022/10/23 06:15:09;;;;;;;22.38;13.07;;;;;;;;;;5049782;28;20037;-64
2022/10/23 06:17:35;;;;;;;21.92;12.60;;;;;;;;;;5045906;28;20099;-64
2022/10/23 06:20:01;;;;;;;25.75;13.23;;;;;;;;;;5047465;28;20120;-64
2022/10/23 06:22:28;;;;;;;26.08;13.20;;;;;;;;;;5038142;28;20045;-64
2022/10/23 06:24:54;;;;;;;20.60;12.00;;;;;;;;;;5053630;28;20052;-64
2022/10/23 06:27:20;;;;;;;21.80;12.93;;;;;;;;;;5050540;28;20411;-64
2022/10/23 06:29:46;;;;;;;23.30;12.40;;;;;;;;;;5033636;28;20045;-64
2022/10/23 06:32:12;;;;;;;23.10;12.77;;;;;;;;;;5042466;28;20045;-64
2022/10/23 06:34:38;;;;;;;26.17;13.05;;;;;;;;;;5053477;28;20491;-64
2022/10/23 06:37:04;;;;;;;25.88;12.98;;;;;;;;;;5053038;28;20041;-64
2022/10/23 06:39:30;;;;;;;22.95;13.15;;;;;;;;;;5038548;28;20069;-64
2022/10/23 06:41:56;;;;;;;19.02;11.52;;;;;;;;;;5046306;28;20028;-64
2022/10/23 06:44:22;;;;;;;21.38;12.43;;;;;;;;;;5050712;28;20395;-64
2022/10/23 06:46:48;;;;;;;26.73;13.07;;;;;;;;;;5046095;28;20507;-64
2022/10/23 06:49:15;;;;;;;20.15;12.85;;;;;;;;;;5043559;28;20499;-64
2022/10/23 06:51:41;;;;;;;24.80;13.02;;;;;;;;;;5044394;28;20407;-64
2022/10/23 06:54:07;;;;;;;22.02;12.27;;;;;;;;;;5046895;28;20115;-64
2022/10/23 06:56:34;;;;;;;22.10;12.07;;;;;;;;;;5044864;28;20490;-64
2022/10/23 06:59:00;;;;;;;23.88;12.95;;;;;;;;;;5031141;28;20051;-64
2022/10/23 07:01:26;;;;;;;24.48;11.93;;;;;;;;;;5028252;28;20033;-64
2022/10/23 07:03:52;;;;;;;24.92;12.48;;;;;;;;;;5024311;28;20534;-64
2022/10/23 07:06:18;;;;;;;25.38;12.43;;;;;;;;;;5031187;28;20037;-65
2022/10/23 07:08:44;;;;;;;19.52;12.27;;;;;;;;;;5040943;28;20033;-64
2022/10/23 07:11:11;;;;;;;21.90;11.82;;;;;;;;;;5042419;28;20052;-64
2022/10/23 07:13:37;;;;;;;21.77;12.40;;;;;;;;;;5047640;28;20510;-65
2022/10/23 07:16:10;;;;;;;24.58;12.38;;;;;;;;;;5047651;28;20557;-64
2022/10/23 07:18:36;;;;;;;21.60;12.50;;;;;;;;;;5038920;28;20033;-64
2022/10/23 07:21:02;;;;;;;21.55;11.15;;;;;;;;;;5045608;28;20040;-64
2022/10/23 07:23:28;;;;;;;19.55;11.88;;;;;;;;;;5041705;28;20041;-64
2022/10/23 07:25:54;;;;;;;19.25;11.20;;;;;;;;;;5041361;28;20406;-64
2022/10/23 07:28:20;;;;;;;21.90;12.15;;;;;;;;;;5043243;28;20041;-64
2022/10/23 07:30:55;;;;;;;19.17;11.52;;;;;;;;;;5049006;28;20494;-64
2022/10/23 07:33:21;;;;;;;24.67;11.73;;;;;;;;;;5040999;28;20045;-64
2022/10/23 07:35:48;;;;;;;20.95;11.68;;;;;;;;;;5050119;28;20469;-64
2022/10/23 07:38:14;;;;;;;17.55;11.07;;;;;;;;;;5041599;28;20045;-64
2022/10/23 07:40:40;;;;;;;19.02;11.25;;;;;;;;;;5041417;28;20033;-64
2022/10/23 07:43:07;;;;;;;17.17;10.43;;;;;;;;;;5049478;28;20682;-64
2022/10/23 07:45:32;;;;;;;20.45;11.15;;;;;;;;;;5046954;28;20120;-64
2022/10/23 07:47:58;;;;;;;19.80;10.60;;;;;;;;;;5045000;28;20132;-65
2022/10/23 07:50:24;;;;;;;17.83;10.98;;;;;;;;;;5041746;28;20040;-64
2022/10/23 07:52:50;;;;;;;26.52;11.15;;;;;;;;;;5048857;28;20033;-64
2022/10/23 07:55:17;;;;;;;20.10;11.25;;;;;;;;;;5043846;28;20128;-64
2022/10/23 07:57:43;;;;;;;20.88;11.00;;;;;;;;;;5049834;28;20033;-64
2022/10/23 08:00:10;;;;;;;16.70;10.27;;;;;;;;;;5047505;28;20092;-65
2022/10/23 08:02:36;;;;;;;20.30;10.65;;;;;;;;;;5044019;28;20041;-64
2022/10/23 08:05:02;;;;;;;22.77;9.95;;;;;;;;;;5040636;28;20036;-64
2022/10/23 08:07:28;;;;;;;20.77;10.82;;;;;;;;;;5049159;28;20032;-64
2022/10/23 08:09:54;;;;;;;17.95;9.75;;;;;;;;;;5043417;28;20041;-65
2022/10/23 08:12:20;;;;;;;19.02;9.95;;;;;;;;;;5046212;28;20068;-64
2022/10/23 08:14:46;;;;;;;19.27;9.93;;;;;;;;;;5038115;28;20069;-64
2022/10/23 08:17:12;;;;;;;16.10;10.18;;;;;;;;;;5033304;28;20533;-65
2022/10/23 08:19:38;;;;;;;17.50;10.50;;;;;;;;;;5042084;28;20033;-64
2022/10/23 08:22:04;;;;;;;20.98;10.55;;;;;;;;;;5044369;28;20540;-64
2022/10/23 08:24:30;;;;;;;17.58;9.80;;;;;;;;;;5050703;28;20037;-64
2022/10/23 08:26:57;;;;;;;18.48;9.98;;;;;;;;;;5047501;28;20056;-64
2022/10/23 08:29:23;;;;;;;16.58;9.43;;;;;;;;;;5042740;28;20053;-64
2022/10/23 08:31:52;;;;;;;14.27;9.52;;;;;;;;;;5045962;28;20048;-64
2022/10/23 08:34:19;;;;;;;19.52;9.85;;;;;;;;;;5040687;28;20394;-64
2022/10/23 08:36:45;;;;;;;23.02;9.70;;;;;;;;;;5038574;28;20510;-65
2022/10/23 08:39:11;;;;;;;17.38;10.10;;;;;;;;;;5040327;28;20044;-64
2022/10/23 08:41:39;;;;;;;21.00;9.68;;;;;;;;;;5043044;28;20041;-64
2022/10/23 08:44:18;;;;;;;13.20;8.90;;;;;;;;;;5036451;28;20094;-65
2022/10/23 08:46:46;;;;;;;21.00;9.55;;;;;;;;;;5042286;28;20163;-65
2022/10/23 08:49:27;;;;;;;21.40;9.82;;;;;;;;;;5051746;28;20045;-64
2022/10/23 08:51:53;;;;;;;;;;;;;;;;;;5040261;28;20045;-64
2022/10/23 08:54:25;;;;;;;16.33;9.30;;;;;;;;;;5038656;28;19927;-65
2022/10/23 08:56:54;;;;;;;15.90;9.35;;;;;;;;;;5045956;28;20033;-65
2022/10/23 08:59:31;;;;;;;18.88;9.75;;;;;;;;;;5037409;28;20029;-64
2022/10/23 09:02:10;;;;;;;14.20;9.38;;;;;;;;;;5040809;28;20037;-64
2022/10/23 09:04:36;;;;;;;17.23;8.77;;;;;;;;;;5040266;28;20052;-64
2022/10/23 09:07:20;;;;;;;16.92;9.07;;;;;;;;;;5046339;28;20033;-65
2022/10/23 09:09:51;;;;;;;21.30;9.63;;;;;;;;;;5035958;28;20044;-64
2022/10/23 09:12:20;;;;;;;17.58;9.80;;;;;;;;;;5041505;28;20400;-64
2022/10/23 09:14:58;;;;;;;15.52;9.77;;;;;;;;;;5040512;28;20033;-64
2022/10/23 09:17:24;;;;;;;15.57;9.00;;;;;;;;;;5041951;28;20112;-64
2022/10/23 09:19:54;;;;;;;16.00;8.63;;;;;;;;;;5049077;28;20564;-64
2022/10/23 09:22:20;;;;;;;16.23;9.07;;;;;;;;;;5040235;28;20045;-64
2022/10/23 09:24:46;;;;;;;16.58;9.30;;;;;;;;;;5042177;28;20656;-64
2022/10/23 09:27:15;;;;;;;15.15;9.55;;;;;;;;;;5045159;28;20041;-64
2022/10/23 09:29:47;;;;;;;13.02;8.30;;;;;;;;;;5048677;28;20075;-64
2022/10/23 09:32:13;;;;;;;16.08;8.27;;;;;;;;;;5048908;28;20135;-64
2022/10/23 09:34:49;;;;;;;14.32;8.32;;;;;;;;;;5044204;28;20083;-63
2022/10/23 09:37:23;;;;;;;15.40;8.38;;;;;;;;;;5050126;28;20534;-64
2022/10/23 09:39:49;;;;;;;16.50;8.57;;;;;;;;;;5046614;28;20040;-64
2022/10/23 09:42:24;;;;;;;13.20;8.02;;;;;;;;;;5047297;28;20044;-64
2022/10/23 09:44:52;;;;;;;15.75;8.30;;;;;;;;;;5045883;28;20080;-64
2022/10/23 09:47:19;;;;;;;14.38;8.23;;;;;;;;;;5053449;28;20495;-64
2022/10/23 09:49:52;;;;;;;13.75;8.18;;;;;;;;;;5048699;28;20588;-64
2022/10/23 09:52:18;;;;;;;13.32;9.15;;;;;;;;;;5040838;28;20065;-64
2022/10/23 09:54:46;;;;;;;13.75;7.80;;;;;;;;;;5053006;28;20383;-64
2022/10/23 09:57:27;;;;;;;16.05;8.30;;;;;;;;;;5052899;28;20499;-64
2022/10/23 09:59:55;;;;;;;17.30;8.48;;;;;;;;;;5041326;28;20754;-65
2022/10/23 10:02:21;;;;;;;16.73;8.55;;;;;;;;;;5038308;28;20045;-64
2022/10/23 10:04:47;;;;;;;17.85;9.23;;;;;;;;;;5045099;28;20073;-65
2022/10/23 10:07:20;;;;;;;14.73;9.35;;;;;;;;;;5045281;28;20123;-65
2022/10/23 10:09:46;;;;;;;13.20;7.55;;;;;;;;;;5041190;28;20118;-64
2022/10/23 10:12:15;;;;;;;12.20;7.45;;;;;;;;;;5051125;28;20482;-64
2022/10/23 10:15:01;;;;;;;12.43;7.13;;;;;;;;;;5049820;28;20102;-64
2022/10/23 10:17:32;;;;;;;15.38;7.55;;;;;;;;;;5048632;28;20510;-64
2022/10/23 10:20:18;;;;;;;11.43;6.85;;;;;;;;;;5038118;28;20041;-64
2022/10/23 10:22:50;;;;;;;13.18;7.22;;;;;;;;;;5044783;28;20033;-64
2022/10/23 10:25:24;;;;;;;11.70;6.95;;;;;;;;;;5048384;28;20045;-65
2022/10/23 10:28:03;;;;;;;13.07;7.07;;;;;;;;;;5040335;28;20044;-65
2022/10/23 10:30:40;;;;;;;12.90;7.15;;;;;;;;;;5049577;28;20037;-65
2022/10/23 10:33:06;;;;;;;11.85;6.72;;;;;;;;;;5051167;28;20137;-64
2022/10/23 10:35:32;;;;;;;11.93;6.35;;;;;;;;;;5039924;28;20128;-64
2022/10/23 10:38:10;;;;;;;16.05;6.68;;;;;;;;;;5047451;28;20033;-64
2022/10/23 10:40:51;;;;;;;13.98;7.18;;;;;;;;;;5043130;28;20487;-64
2022/10/23 10:43:26;;;;;;;11.20;6.55;;;;;;;;;;5052724;28;20487;-64
2022/10/23 10:45:57;;;;;;;11.48;6.50;;;;;;;;;;5043273;28;20037;-64
2022/10/23 10:48:28;;;;;;;12.15;6.57;;;;;;;;;;5051319;28;20045;-64
2022/10/23 10:51:01;;;;;;;10.85;6.35;;;;;;;;;;5052498;28;20098;-65
2022/10/23 10:53:42;;;;;;;10.38;5.72;;;;;;;;;;5048074;28;20135;-64
2022/10/23 10:56:11;;;;;;;9.93;6.05;;;;;;;;;;5040506;28;20124;-64
2022/10/23 10:58:46;;;;;;;14.38;5.47;;;;;;;;;;5046973;28;20057;-64
2022/10/23 11:01:18;;;;;;;9.93;5.97;;;;;;;;;;5050022;28;20124;-64
2022/10/23 11:03:53;;;;;;;9.77;5.93;;;;;;;;;;5047467;28;20036;-64
2022/10/23 11:06:22;;;;;;;7.68;5.60;;;;;;;;;;5040986;28;20395;-65
2022/10/23 11:08:48;;;;;;;13.65;6.00;;;;;;;;;;5035675;28;20047;-64
2022/10/23 11:11:30;;;;;;;9.80;5.90;;;;;;;;;;5050410;28;20124;-64
2022/10/23 11:13:56;;;;;;;11.40;5.90;;;;;;;;;;5038923;28;20044;-64
2022/10/23 11:16:36;;;;;;;13.35;6.65;;;;;;;;;;5041318;28;20461;-64
2022/10/23 11:19:02;;;;;;;11.70;6.05;;;;;;;;;;5049743;28;20041;-64
2022/10/23 11:21:31;;;;;;;9.95;5.80;;;;;;;;;;5046078;28;20513;-64
2022/10/23 11:24:09;;;;;;;9.73;5.80;;;;;;;;;;5037627;28;20114;-65
2022/10/23 11:26:51;;;;;;;10.43;5.78;;;;;;;;;;5048463;28;20501;-65
2022/10/23 11:29:17;;;;;;;13.68;5.35;;;;;;;;;;5051563;28;20094;-64
2022/10/23 11:31:54;;;;;;;10.70;5.70;;;;;;;;;;5052053;28;20033;-65
2022/10/23 11:34:20;;;;;;;14.98;5.75;;;;;;;;;;5050050;28;20076;-65
2022/10/23 11:36:46;;;;;;;10.32;5.75;;;;;;;;;;5040631;28;20486;-65
2022/10/23 11:39:28;;;;;;;8.02;5.40;;;;;;;;;;5051578;28;20072;-65
2022/10/23 11:42:15;;;;;;;8.48;5.07;;;;;;;;;;5052210;28;20487;-65
2022/10/23 11:44:48;;;;;;;9.80;5.15;;;;;;;;;;5045000;28;20052;-65
2022/10/23 11:47:33;;;;;;;13.35;4.88;;;;;;;;;;5047791;28;20295;-65
2022/10/23 11:50:08;;;;;;;10.10;4.93;;;;;;;;;;5050784;28;20041;-65
2022/10/23 11:52:54;;;;;;;9.35;4.45;;;;;;;;;;5041000;28;20049;-65
2022/10/23 11:55:25;;;;;;;8.80;4.50;;;;;;;;;;5049461;28;20529;-65
2022/10/23 11:58:17;;;;;;;10.50;4.38;;;;;;;;;;5051736;28;20037;-65
2022/10/23 12:00:51;;;;;;;7.07;4.30;;;;;;;;;;5044838;28;20514;-65
2022/10/23 12:03:21;;;;;;;5.75;4.10;;;;;;;;;;5049637;28;20533;-65
2022/10/23 12:05:56;;;;;;;6.57;4.10;;;;;;;;;;5047190;28;20029;-65
2022/10/23 12:08:22;;;;;;;7.63;4.00;;;;;;;;;;5030129;28;20045;-65
2022/10/23 12:10:54;;;;;;;7.55;3.85;;;;;;;;;;5035823;28;20037;-65
2022/10/23 12:13:32;;;;;;;8.40;3.90;;;;;;;;;;5041122;28;20048;-64
2022/10/23 12:15:58;;;;;;;8.07;3.88;;;;;;;;;;5050208;28;20040;-64
2022/10/23 12:18:24;;;;;;;10.27;4.43;;;;;;;;;;5044172;28;20036;-64
2022/10/23 12:20:54;;;;;;;7.32;4.18;;;;;;;;;;5047285;28;20045;-64
2022/10/23 12:23:26;;;;;;;8.35;3.95;;;;;;;;;;5049594;28;20060;-64
2022/10/23 12:25:55;;;;;;;5.82;3.85;;;;;;;;;;5051692;28;20577;-65
2022/10/23 12:28:24;;;;;;;9.48;3.80;;;;;;;;;;5051090;28;20044;-64
2022/10/23 12:31:05;;;;;;;12.10;4.47;;;;;;;;;;5042029;28;20460;-64
2022/10/23 12:33:39;;;;;;;7.03;3.95;;;;;;;;;;5040754;28;20040;-64
2022/10/23 12:36:12;;;;;;;10.73;4.25;;;;;;;;;;5047356;28;20048;-64
2022/10/23 12:38:48;;;;;;;9.55;3.92;;;;;;;;;;5051079;28;20041;-64
2022/10/23 12:41:34;;;;;;;7.43;3.83;;;;;;;;;;5044706;28;20095;-64
2022/10/23 12:44:04;;;;;;;7.22;3.85;;;;;;;;;;5045947;28;20040;-64
2022/10/23 12:46:40;;;;;;;6.47;3.35;;;;;;;;;;5050794;28;20064;-64
2022/10/23 12:49:17;;;;;;;12.38;4.47;;;;;;;;;;5050938;28;20043;-65
2022/10/23 12:51:43;;;;;;;9.27;4.13;;;;;;;;;;5047792;28;20037;-64
2022/10/23 12:54:16;;;;;;;12.50;4.18;;;;;;;;;;5054747;28;20495;-64
2022/10/23 12:56:43;;;;;;;6.68;3.90;;;;;;;;;;5055331;28;20518;-64
2022/10/23 12:59:18;;;;;;;9.80;3.63;;;;;;;;;;5053717;28;20072;-64
2022/10/23 13:01:44;;;;;;;9.00;3.83;;;;;;;;;;5041542;28;20082;-64
2022/10/23 13:04:10;;;;;;;6.53;4.03;;;;;;;;;;5051533;28;20131;-64
2022/10/23 13:06:36;;;;;;;8.05;3.97;;;;;;;;;;5055305;28;20608;-64
2022/10/23 13:09:03;;;;;;;7.03;4.40;;;;;;;;;;5054627;28;20162;-64
2022/10/23 13:11:29;;;;;;;10.77;4.15;;;;;;;;;;5054262;28;20037;-64
2022/10/23 13:13:55;;;;;;;6.68;3.97;;;;;;;;;;5054649;28;20265;-64
2022/10/23 13:16:25;;;;;;;6.28;4.20;;;;;;;;;;5052894;28;20119;-64
2022/10/23 13:18:53;;;;;;;6.63;3.90;;;;;;;;;;5054305;28;20086;-64
2022/10/23 13:21:22;;;;;;;7.80;4.00;;;;;;;;;;5049525;28;20044;-65
2022/10/23 13:23:49;;;;;;;9.95;4.18;;;;;;;;;;5050773;28;20037;-64
2022/10/23 13:26:30;;;;;;;8.20;3.80;;;;;;;;;;5053864;28;20491;-64
2022/10/23 13:28:57;;;;;;;7.93;4.35;;;;;;;;;;5051971;28;20399;-64
2022/10/23 13:31:24;;;;;;;12.18;4.20;;;;;;;;;;5048990;28;20044;-64
2022/10/23 13:34:00;;;;;;;9.60;4.43;;;;;;;;;;5048753;28;20124;-64
2022/10/23 13:36:27;;;;;;;7.38;4.32;;;;;;;;;;5054102;28;20041;-65
2022/10/23 13:38:59;;;;;;;9.27;3.95;;;;;;;;;;5052701;28;20051;-64
2022/10/23 13:41:25;;;;;;;8.18;4.35;;;;;;;;;;5049881;28;20193;-65
2022/10/23 13:43:51;;;;;;;9.15;4.35;;;;;;;;;;5053521;28;20047;-64
2022/10/23 13:46:18;;;;;;;5.65;3.88;;;;;;;;;;5053305;28;20123;-64
2022/10/23 13:48:45;;;;;;;9.02;4.35;;;;;;;;;;5054148;28;20037;-64
2022/10/23 13:51:24;;;;;;;8.13;4.13;;;;;;;;;;5049417;28;20037;-64
2022/10/23 13:53:51;;;;;;;8.20;4.30;;;;;;;;;;5048031;28;20453;-64
2022/10/23 13:56:19;;;;;;;10.68;5.10;;;;;;;;;;5050507;28;20136;-65
2022/10/23 13:58:45;;;;;;;8.63;5.50;;;;;;;;;;5052326;28;20529;-64
2022/10/23 14:01:25;;;;;;;9.57;4.47;;;;;;;;;;5049533;28;20433;-64
2022/10/23 14:03:51;;;;;;;9.13;4.32;;;;;;;;;;5052686;28;20379;-64
2022/10/23 14:06:18;;;;;;;8.90;4.47;;;;;;;;;;5053868;28;20041;-64
2022/10/23 14:08:44;;;;;;;8.00;4.22;;;;;;;;;;5045221;28;20037;-64
2022/10/23 14:11:10;;;;;;;8.95;4.97;;;;;;;;;;5042809;28;20536;-65
2022/10/23 14:13:37;;;;;;;10.32;4.45;;;;;;;;;;5046559;28;20407;-65
2022/10/23 14:16:03;;;;;;;7.65;3.97;;;;;;;;;;5049168;28;20095;-65
2022/10/23 14:18:29;;;;;;;7.82;4.25;;;;;;;;;;5053124;28;20036;-65
2022/10/23 14:20:58;;;;;;;6.80;4.30;;;;;;;;;;5048439;28;20119;-65
2022/10/23 14:23:24;;;;;;;9.07;3.97;;;;;;;;;;5052091;28;20077;-64
2022/10/23 14:25:50;;;;;;;8.57;4.40;;;;;;;;;;5042759;28;20081;-65
2022/10/23 14:28:16;;;;;;;8.52;4.20;;;;;;;;;;5050603;28;20099;-65
2022/10/23 14:30:43;;;;;;;8.93;4.32;;;;;;;;;;5053482;28;20045;-65
2022/10/23 14:33:09;;;;;;;9.02;3.85;;;;;;;;;;5051568;28;20052;-64
2022/10/23 14:35:39;;;;;;;6.18;3.70;;;;;;;;;;5038374;28;20048;-65
2022/10/23 14:38:05;;;;;;;5.15;3.67;;;;;;;;;;5046576;28;20045;-65